createdAt,value
2023-01-09T00:00:20.906Z,3.65
2023-01-09T00:05:20.867Z,3.66
2023-01-09T00:10:20.881Z,3.64
2023-01-09T00:15:20.880Z,3.63
2023-01-09T00:20:20.851Z,3.59
2023-01-09T00:25:20.879Z,3.56
2023-01-09T00:30:20.891Z,3.57
2023-01-09T00:35:20.888Z,3.6
2023-01-09T00:40:20.873Z,3.61
2023-01-09T00:45:20.851Z,3.62
2023-01-09T00:50:20.900Z,3.62
2023-01-09T00:55:20.832Z,3.62
2023-01-09T01:00:20.834Z,3.65
2023-01-09T01:05:20.826Z,3.67
2023-01-09T01:10:20.937Z,3.76
2023-01-09T01:15:20.834Z,3.8
2023-01-09T01:20:20.808Z,3.84
2023-01-09T01:25:20.817Z,3.9
2023-01-09T01:35:20.804Z,3.83
2023-01-09T01:40:20.919Z,3.85
2023-01-09T01:45:20.810Z,3.8
2023-01-09T01:50:20.836Z,3.83
2023-01-09T01:55:20.813Z,3.89
2023-01-09T02:00:20.815Z,3.99
2023-01-09T02:05:20.787Z,4.14
2023-01-09T02:10:20.800Z,4.19
2023-01-09T02:15:20.804Z,4.19
2023-01-09T02:20:20.804Z,4.2
2023-01-09T02:25:20.796Z,4.2
2023-01-09T02:35:20.776Z,4.19
2023-01-09T02:40:20.802Z,4.2
2023-01-09T02:45:20.773Z,4.19
2023-01-09T02:50:20.764Z,4.2
2023-01-09T02:55:20.756Z,4.2
2023-01-09T03:00:20.759Z,4.22
2023-01-09T03:05:20.771Z,4.29
2023-01-09T03:10:20.789Z,4.3
2023-01-09T03:15:20.770Z,4.35
2023-01-09T03:20:20.747Z,4.39
2023-01-09T03:25:20.752Z,4.43
2023-01-09T03:30:20.753Z,4.41
2023-01-09T03:35:20.740Z,4.41
2023-01-09T03:40:20.760Z,4.43
2023-01-09T03:45:20.733Z,4.41
2023-01-09T03:50:20.738Z,4.29
2023-01-09T03:55:20.739Z,4.22
2023-01-09T04:00:20.748Z,4.26
2023-01-09T04:05:20.729Z,4.2
2023-01-09T04:10:20.738Z,4.19
2023-01-09T04:15:20.747Z,4.19
2023-01-09T04:20:20.728Z,4.19
2023-01-09T04:25:20.732Z,4.2
2023-01-09T04:30:20.794Z,4.2
2023-01-09T04:35:20.713Z,4.2
2023-01-09T04:40:20.709Z,4.19
2023-01-09T04:45:20.717Z,4.19
2023-01-09T04:50:20.711Z,4.2
2023-01-09T04:55:20.700Z,4.2
2023-01-09T05:00:20.706Z,4.2
2023-01-09T05:05:20.694Z,4.26
2023-01-09T05:10:20.674Z,4.34
2023-01-09T05:15:20.691Z,4.35
2023-01-09T05:20:20.676Z,4.3
2023-01-09T05:25:20.670Z,4.22
2023-01-09T05:30:20.676Z,4.2
2023-01-09T05:35:20.675Z,4.19
2023-01-09T05:40:20.857Z,4.2
2023-01-09T05:45:20.785Z,4.2
2023-01-09T05:50:20.672Z,4.2
2023-01-09T05:55:20.781Z,4.2
2023-01-09T06:00:20.674Z,4.22
2023-01-09T06:05:20.669Z,4.27
2023-01-09T06:10:20.670Z,4.41
2023-01-09T06:15:20.664Z,4.58
2023-01-09T06:20:20.646Z,4.85
2023-01-09T06:25:20.654Z,5.11
2023-01-09T06:30:20.623Z,5.26
2023-01-09T06:35:20.829Z,5.37
2023-01-09T06:40:20.638Z,5.47
2023-01-09T06:45:20.650Z,5.56
2023-01-09T06:50:20.605Z,5.59
2023-01-09T06:55:20.629Z,5.58
2023-01-09T07:00:20.633Z,5.58
2023-01-09T07:05:20.614Z,5.57
2023-01-09T07:10:20.611Z,5.55
2023-01-09T07:15:20.618Z,5.54
2023-01-09T07:20:20.605Z,5.58
2023-01-09T07:25:20.590Z,5.58
2023-01-09T07:30:20.598Z,5.59
2023-01-09T07:35:20.587Z,5.66
2023-01-09T07:40:20.577Z,5.73
2023-01-09T07:45:20.587Z,5.81
2023-01-09T07:50:20.582Z,5.83
2023-01-09T07:55:20.562Z,5.87
2023-01-09T08:00:20.560Z,5.9
2023-01-09T08:05:20.593Z,5.94
2023-01-09T08:10:20.592Z,5.99
2023-01-09T08:15:20.589Z,6.05
2023-01-09T08:20:20.550Z,6.01
2023-01-09T08:25:20.549Z,5.94
2023-01-09T08:30:20.546Z,5.88
2023-01-09T08:35:20.592Z,5.92
2023-01-09T08:40:20.548Z,5.91
2023-01-09T08:45:20.542Z,5.87
2023-01-09T08:50:20.549Z,5.83
2023-01-09T08:55:20.512Z,5.82
2023-01-09T09:00:20.551Z,5.77
2023-01-09T09:05:20.541Z,5.74
2023-01-09T09:10:20.543Z,5.81
2023-01-09T09:15:20.533Z,5.94
2023-01-09T09:20:20.508Z,6.19
2023-01-09T09:25:20.522Z,6.37
2023-01-09T09:30:20.501Z,6.49
2023-01-09T09:35:20.499Z,6.42
2023-01-09T09:40:20.491Z,6.34
2023-01-09T09:45:20.515Z,6.27
2023-01-09T09:50:20.500Z,6.12
2023-01-09T09:55:20.487Z,6.11
2023-01-09T10:00:20.473Z,6.08
2023-01-09T10:05:20.487Z,6.11
2023-01-09T10:10:20.476Z,6.16
2023-01-09T10:15:20.454Z,6.17
2023-01-09T10:20:20.500Z,6.12
2023-01-09T10:25:20.463Z,6.08
2023-01-09T10:40:20.500Z,6.24
2023-01-09T10:50:20.438Z,6.43
2023-01-09T10:55:20.436Z,6.53
2023-01-09T11:10:23.452Z,6.7
2023-01-09T11:30:20.413Z,6.79
2023-01-09T11:35:20.471Z,6.91
2023-01-09T11:45:20.402Z,7
2023-01-09T11:50:20.399Z,7
2023-01-09T11:55:20.387Z,7
2023-01-09T12:00:20.379Z,7.11
2023-01-09T12:05:20.379Z,7.21
2023-01-09T12:10:20.374Z,7.17
2023-01-09T12:20:20.393Z,7.01
2023-01-09T12:25:20.365Z,7
2023-01-09T12:30:20.369Z,7.08
2023-01-09T12:35:20.367Z,7
2023-01-09T12:40:20.352Z,7
2023-01-09T12:45:20.367Z,7.04
2023-01-09T12:50:20.324Z,7.01
2023-01-09T12:55:20.352Z,7.1
2023-01-09T13:00:20.357Z,7.17
2023-01-09T13:05:20.334Z,7.3
2023-01-09T13:10:20.316Z,7.41
2023-01-09T13:15:20.326Z,7.47
2023-01-09T13:20:20.313Z,7.41
2023-01-09T13:25:20.321Z,7.3
2023-01-09T13:30:20.311Z,7.24
2023-01-09T13:35:20.314Z,7.2
2023-01-09T13:40:20.302Z,7.15
2023-01-09T13:45:20.270Z,7
2023-01-09T13:50:20.297Z,7
2023-01-09T13:55:20.287Z,7
2023-01-09T14:00:20.313Z,6.93
2023-01-09T14:05:20.291Z,6.88
2023-01-09T14:10:20.276Z,6.79
2023-01-09T14:15:20.273Z,6.71
2023-01-09T14:20:20.280Z,6.62
2023-01-09T14:30:20.266Z,6.45
2023-01-09T14:35:20.240Z,6.42
2023-01-09T14:40:20.251Z,6.33
2023-01-09T14:45:20.278Z,6.3
2023-01-09T14:50:20.256Z,6.24
2023-01-09T14:55:20.234Z,6.21
2023-01-09T15:00:20.247Z,6.17
2023-01-09T15:05:20.255Z,6.12
2023-01-09T15:10:20.271Z,6.05
2023-01-09T15:20:20.237Z,5.81
2023-01-09T15:25:22.696Z,5.7
2023-01-09T15:30:20.236Z,5.58
2023-01-09T15:35:20.221Z,5.48
2023-01-09T15:40:20.224Z,5.44
2023-01-09T15:45:20.207Z,5.37
2023-01-09T15:50:20.205Z,5.31
2023-01-09T15:55:20.201Z,5.31
2023-01-09T16:00:20.187Z,5.19
2023-01-09T16:05:20.199Z,5.08
2023-01-09T16:10:20.230Z,5.02
2023-01-09T16:15:20.191Z,4.98
2023-01-09T16:20:20.183Z,4.96
2023-01-09T16:25:20.164Z,4.92
2023-01-09T16:30:20.173Z,4.86
2023-01-09T16:35:20.164Z,4.85
2023-01-09T16:40:20.191Z,4.98
2023-01-09T16:45:20.156Z,5.12
2023-01-09T16:50:20.168Z,5.29
2023-01-09T16:55:20.144Z,5.4
2023-01-09T17:00:20.195Z,5.49
2023-01-09T17:05:20.143Z,5.59
2023-01-09T17:10:20.143Z,5.7
2023-01-09T17:15:20.163Z,5.75
2023-01-09T17:20:20.136Z,5.72
2023-01-09T17:25:20.135Z,5.73
2023-01-09T17:30:20.293Z,5.76
2023-01-09T17:35:20.120Z,5.75
2023-01-09T17:40:20.136Z,5.75
2023-01-09T17:45:20.110Z,5.76
2023-01-09T17:50:20.113Z,5.74
2023-01-09T17:55:20.121Z,5.72
2023-01-09T18:00:20.422Z,5.7
2023-01-09T18:05:20.082Z,5.67
2023-01-09T18:10:20.092Z,5.66
2023-01-09T18:15:20.100Z,5.63
2023-01-09T18:20:20.185Z,5.52
2023-01-09T18:25:20.093Z,5.39
2023-01-09T18:30:20.099Z,5.29
2023-01-09T18:35:20.065Z,5.19
2023-01-09T18:40:20.063Z,5.12
2023-01-09T18:45:20.077Z,5.07
2023-01-09T18:50:20.073Z,5.02
2023-01-09T18:55:20.135Z,4.99
2023-01-09T19:00:20.040Z,4.94
2023-01-09T19:05:20.065Z,4.86
2023-01-09T19:10:20.070Z,4.81
2023-01-09T19:15:20.059Z,4.71
2023-01-09T19:20:20.095Z,4.6
2023-01-09T19:25:20.057Z,4.45
2023-01-09T19:30:20.044Z,4.31
2023-01-09T19:35:20.023Z,4.2
2023-01-09T19:40:20.058Z,4.2
2023-01-09T19:45:20.060Z,4.2
2023-01-09T19:50:20.048Z,4.19
2023-01-09T19:55:20.047Z,4.18
2023-01-09T20:00:20.117Z,4.19
2023-01-09T20:05:20.023Z,4.19
2023-01-09T20:10:20.017Z,4.24
2023-01-09T20:15:20.002Z,4.28
2023-01-09T20:20:20.030Z,4.39
2023-01-09T20:25:20.019Z,4.45
2023-01-09T20:30:20.013Z,4.42
2023-01-09T20:35:19.983Z,4.22
2023-01-09T20:40:19.998Z,4.19
2023-01-09T20:45:20.008Z,4.18
2023-01-09T20:50:20.043Z,4.1
2023-01-09T20:55:19.962Z,4.07
2023-01-09T21:00:19.999Z,4.04
2023-01-09T21:05:19.975Z,3.91
2023-01-09T21:10:20.000Z,3.81
2023-01-09T21:15:19.993Z,3.9
2023-01-09T21:20:19.965Z,3.96
2023-01-09T21:25:19.960Z,3.97
2023-01-09T21:30:19.981Z,3.98
2023-01-09T21:35:19.948Z,4.11
2023-01-09T21:40:19.967Z,4.19
2023-01-09T21:45:19.949Z,4.19
2023-01-09T21:50:19.972Z,4.2
2023-01-09T21:55:19.959Z,4.2
2023-01-09T22:00:19.925Z,4.2
2023-01-09T22:05:19.936Z,4.18
2023-01-09T22:10:20.281Z,4.09
2023-01-09T22:15:19.953Z,4.02
2023-01-09T22:20:19.943Z,3.92
2023-01-09T22:25:22.090Z,3.89
2023-01-09T22:30:19.918Z,3.9
2023-01-09T22:35:19.935Z,3.94
2023-01-09T22:40:19.938Z,3.99
2023-01-09T22:45:19.920Z,4.05
2023-01-09T22:50:19.908Z,4.07
2023-01-09T22:55:19.902Z,4.09
2023-01-09T23:00:19.928Z,4.09
2023-01-09T23:05:19.924Z,4.11
2023-01-09T23:10:19.905Z,4.12
2023-01-09T23:20:19.892Z,4.13
2023-01-09T23:25:19.891Z,4.13
2023-01-09T23:30:19.886Z,4.12
2023-01-09T23:35:19.894Z,4.12
2023-01-09T23:40:19.894Z,4.13
2023-01-09T23:45:19.907Z,4.18
2023-01-09T23:50:19.902Z,4.18
2023-01-09T23:55:19.878Z,4.18
